Time;durP1;ratioP1;P1;durP2;ratioP2;P2;SDS_P1;SDS_P2;PMS_P1;PMS_P2;Temp;Humidity;BMP_temperature;BMP_pressure;BME280_temperature;BME280_humidity;BME280_pressure;Samples;Min_cycle;Max_cycle;Signal;HPM_P1;HPM_P2
2023/08/09 00:01:03;;;;;;;7.00;2.30;;;;;;;;;;5075394;28;20020;-81
2023/08/09 00:03:28;;;;;;;4.00;2.00;;;;;;;;;;5074391;28;20023;-82
2023/08/09 00:05:53;;;;;;;6.93;2.22;;;;;;;;;;5073013;28;20093;-82
2023/08/09 00:08:19;;;;;;;5.35;2.25;;;;;;;;;;5073396;28;20055;-81
2023/08/09 00:10:44;;;;;;;7.57;2.35;;;;;;;;;;5074073;28;20115;-82
2023/08/09 00:13:09;;;;;;;5.78;2.00;;;;;;;;;;5073434;28;20104;-82
2023/08/09 00:15:35;;;;;;;3.67;1.88;;;;;;;;;;5073397;28;20099;-82
2023/08/09 00:18:03;;;;;;;4.03;2.00;;;;;;;;;;5072144;28;20515;-82
2023/08/09 00:20:28;;;;;;;3.10;1.75;;;;;;;;;;5074482;28;20012;-82
2023/08/09 00:22:54;;;;;;;4.57;1.73;;;;;;;;;;5073216;28;20169;-81
2023/08/09 00:25:20;;;;;;;3.28;1.95;;;;;;;;;;5074122;28;20016;-82
2023/08/09 00:27:46;;;;;;;5.40;1.92;;;;;;;;;;5097514;28;20035;-82
2023/08/09 00:30:14;;;;;;;4.03;2.08;;;;;;;;;;5073471;28;20028;-82
2023/08/09 00:32:40;;;;;;;4.07;2.22;;;;;;;;;;5074456;28;20020;-81
2023/08/09 00:35:06;;;;;;;8.77;2.65;;;;;;;;;;5075481;28;20022;-82
2023/08/09 00:37:31;;;;;;;4.20;2.28;;;;;;;;;;5067898;28;20016;-82
2023/08/09 00:39:58;;;;;;;8.48;2.65;;;;;;;;;;5073477;28;20024;-81
2023/08/09 00:42:23;;;;;;;4.03;2.00;;;;;;;;;;5080061;28;20020;-81
2023/08/09 00:44:50;;;;;;;6.53;2.35;;;;;;;;;;5095054;28;20047;-82
2023/08/09 00:47:16;;;;;;;7.00;2.42;;;;;;;;;;5074899;28;20020;-82
2023/08/09 00:49:44;;;;;;;8.95;2.20;;;;;;;;;;5080491;28;20035;-82
2023/08/09 00:52:10;;;;;;;4.57;2.78;;;;;;;;;;5080647;28;20118;-82
2023/08/09 00:54:38;;;;;;;6.25;2.35;;;;;;;;;;5074276;28;20351;-82
2023/08/09 00:57:09;;;;;;;7.68;2.10;;;;;;;;;;5076114;28;20079;-83
2023/08/09 00:59:35;;;;;;;6.18;2.55;;;;;;;;;;5069774;28;20826;-82
2023/08/09 01:02:03;;;;;;;8.38;2.75;;;;;;;;;;5067463;28;20056;-81
2023/08/09 01:04:29;;;;;;;3.42;1.88;;;;;;;;;;5073821;28;20012;-82
2023/08/09 01:07:08;;;;;;;5.25;2.15;;;;;;;;;;5073962;28;20028;-83
2023/08/09 01:09:42;;;;;;;4.18;2.88;;;;;;;;;;5072666;28;20024;-82
2023/08/09 01:12:10;;;;;;;5.40;2.30;;;;;;;;;;5072947;28;20602;-82
2023/08/09 01:14:37;;;;;;;5.80;2.40;;;;;;;;;;5071849;28;20324;-82
2023/08/09 01:17:04;;;;;;;5.70;2.72;;;;;;;;;;5073126;28;20396;-83
2023/08/09 01:19:36;;;;;;;3.25;2.13;;;;;;;;;;5087738;28;20024;-84
2023/08/09 01:22:16;;;;;;;5.72;2.65;;;;;;;;;;5090155;28;20114;-82
2023/08/09 01:24:42;;;;;;;4.97;2.65;;;;;;;;;;5095064;28;20139;-82
2023/08/09 01:27:08;;;;;;;6.88;2.92;;;;;;;;;;5095724;28;20371;-82
2023/08/09 01:29:36;;;;;;;4.75;2.83;;;;;;;;;;5075711;28;20475;-82
2023/08/09 01:32:02;;;;;;;7.35;3.13;;;;;;;;;;5076905;28;20026;-82
2023/08/09 01:34:30;;;;;;;4.38;3.08;;;;;;;;;;5076375;28;20487;-82
2023/08/09 01:37:01;;;;;;;9.68;2.95;;;;;;;;;;5077456;28;20475;-83
2023/08/09 01:39:32;;;;;;;4.18;2.15;;;;;;;;;;5076431;28;20020;-83
2023/08/09 01:41:58;;;;;;;6.35;3.03;;;;;;;;;;5078877;28;20016;-83
2023/08/09 01:44:23;;;;;;;5.00;2.20;;;;;;;;;;5079969;28;20020;-83
2023/08/09 01:46:49;;;;;;;6.07;2.35;;;;;;;;;;5076917;28;20020;-83
2023/08/09 01:49:15;;;;;;;5.88;2.47;;;;;;;;;;5094236;28;20198;-83
2023/08/09 01:51:41;;;;;;;5.10;2.30;;;;;;;;;;5097509;28;20103;-82
2023/08/09 01:54:07;;;;;;;3.88;1.80;;;;;;;;;;5082777;28;20058;-83
2023/08/09 01:56:32;;;;;;;4.50;1.90;;;;;;;;;;5083517;28;20140;-83
2023/08/09 01:58:58;;;;;;;7.63;2.05;;;;;;;;;;5082762;28;20032;-83
2023/08/09 02:01:23;;;;;;;5.82;1.70;;;;;;;;;;5080070;28;20016;-83
2023/08/09 02:03:51;;;;;;;4.53;2.45;;;;;;;;;;5080892;28;20042;-82
2023/08/09 02:06:17;;;;;;;3.08;1.55;;;;;;;;;;5082105;28;20066;-82
2023/08/09 02:08:43;;;;;;;3.42;1.70;;;;;;;;;;5079518;28;20067;-82
2023/08/09 02:11:08;;;;;;;3.00;2.10;;;;;;;;;;5076629;28;20150;-83
2023/08/09 02:13:34;;;;;;;2.80;2.05;;;;;;;;;;5080952;28;20039;-83
2023/08/09 02:16:00;;;;;;;2.83;1.90;;;;;;;;;;5075385;28;20020;-83
2023/08/09 02:18:26;;;;;;;4.50;1.90;;;;;;;;;;5076899;28;20106;-83
2023/08/09 02:20:52;;;;;;;3.63;1.77;;;;;;;;;;5076538;28;20115;-83
2023/08/09 02:23:18;;;;;;;2.53;1.50;;;;;;;;;;5076961;28;20017;-83
2023/08/09 02:25:43;;;;;;;1.98;1.25;;;;;;;;;;5076466;28;20024;-82
2023/08/09 02:28:08;;;;;;;2.63;1.27;;;;;;;;;;5076542;28;20039;-83
2023/08/09 02:30:33;;;;;;;2.00;1.40;;;;;;;;;;5075220;28;20025;-83
2023/08/09 02:32:59;;;;;;;1.70;1.20;;;;;;;;;;5076832;28;20027;-82
2023/08/09 02:35:24;;;;;;;2.55;1.45;;;;;;;;;;5076524;28;20069;-83
2023/08/09 02:37:49;;;;;;;1.35;1.05;;;;;;;;;;5095163;28;20486;-83
2023/08/09 02:40:15;;;;;;;3.30;1.00;;;;;;;;;;5076576;28;20463;-82
2023/08/09 02:42:40;;;;;;;1.63;1.00;;;;;;;;;;5075597;28;20103;-82
2023/08/09 02:45:06;;;;;;;0.80;0.77;;;;;;;;;;5076671;28;20020;-83
2023/08/09 02:47:31;;;;;;;2.25;0.88;;;;;;;;;;5076246;28;20027;-83
2023/08/09 02:49:56;;;;;;;3.92;1.10;;;;;;;;;;5075612;28;20724;-82
2023/08/09 02:52:22;;;;;;;1.58;1.20;;;;;;;;;;5075560;28;20056;-82
2023/08/09 02:54:47;;;;;;;5.68;1.00;;;;;;;;;;5077786;28;20013;-82
2023/08/09 02:57:13;;;;;;;7.03;1.30;;;;;;;;;;5076120;28;20487;-82
2023/08/09 02:59:38;;;;;;;1.38;0.95;;;;;;;;;;5078487;28;20020;-82
2023/08/09 03:02:05;;;;;;;2.08;1.33;;;;;;;;;;5075875;28;20058;-82
2023/08/09 03:04:34;;;;;;;1.67;1.10;;;;;;;;;;5076132;28;20034;-82
2023/08/09 03:07:00;;;;;;;1.70;1.13;;;;;;;;;;5063905;28;20072;-82
2023/08/09 03:09:25;;;;;;;2.08;1.17;;;;;;;;;;5082389;28;20024;-83
2023/08/09 03:11:51;;;;;;;1.45;0.85;;;;;;;;;;5083222;28;20053;-82
2023/08/09 03:14:16;;;;;;;1.70;1.08;;;;;;;;;;5080617;28;20115;-82
2023/08/09 03:16:45;;;;;;;1.88;1.10;;;;;;;;;;5079700;28;20599;-83
2023/08/09 03:19:11;;;;;;;3.95;1.40;;;;;;;;;;5079745;28;20020;-83
2023/08/09 03:21:36;;;;;;;3.60;2.10;;;;;;;;;;5076519;28;20030;-82
2023/08/09 03:24:01;;;;;;;2.58;1.58;;;;;;;;;;5075652;28;20038;-82
2023/08/09 03:26:29;;;;;;;3.33;2.05;;;;;;;;;;5075537;28;20479;-83
2023/08/09 03:28:55;;;;;;;3.65;2.20;;;;;;;;;;5075936;28;20024;-82
2023/08/09 03:31:20;;;;;;;5.35;2.13;;;;;;;;;;5076179;28;20066;-82
2023/08/09 03:33:45;;;;;;;3.67;1.90;;;;;;;;;;5075492;28;20093;-82
2023/08/09 03:36:12;;;;;;;3.40;2.00;;;;;;;;;;5093610;28;20016;-81
2023/08/09 03:38:38;;;;;;;4.30;2.25;;;;;;;;;;5075311;28;20028;-81
2023/08/09 03:41:03;;;;;;;4.00;2.38;;;;;;;;;;5075443;28;20173;-82
2023/08/09 03:43:28;;;;;;;5.07;2.45;;;;;;;;;;5074149;28;20024;-82
2023/08/09 03:45:54;;;;;;;5.25;2.20;;;;;;;;;;5076369;28;20036;-82
2023/08/09 03:48:19;;;;;;;5.78;2.78;;;;;;;;;;5091515;28;20024;-82
2023/08/09 03:50:44;;;;;;;4.32;2.63;;;;;;;;;;5084452;28;20054;-82
2023/08/09 03:53:10;;;;;;;5.30;2.78;;;;;;;;;;5087204;28;20032;-82
2023/08/09 03:55:35;;;;;;;5.88;2.83;;;;;;;;;;5077058;28;20031;-83
2023/08/09 03:58:00;;;;;;;4.95;2.95;;;;;;;;;;5088922;28;20083;-82
2023/08/09 04:00:29;;;;;;;3.85;2.22;;;;;;;;;;5074900;28;20454;-83
2023/08/09 04:02:56;;;;;;;6.88;3.40;;;;;;;;;;5074715;28;20350;-83
2023/08/09 04:05:21;;;;;;;9.30;3.58;;;;;;;;;;5074364;28;20032;-82
2023/08/09 04:07:52;;;;;;;6.10;2.92;;;;;;;;;;5074462;28;20028;-83
2023/08/09 04:10:18;;;;;;;7.28;3.72;;;;;;;;;;5074769;28;20494;-83
2023/08/09 04:12:43;;;;;;;8.13;2.95;;;;;;;;;;5073953;28;20024;-83
2023/08/09 04:15:09;;;;;;;8.85;4.00;;;;;;;;;;5080526;28;20008;-83
2023/08/09 04:17:34;;;;;;;7.95;4.40;;;;;;;;;;5091657;28;20112;-83
2023/08/09 04:20:00;;;;;;;9.80;4.20;;;;;;;;;;5075053;28;20027;-82
2023/08/09 04:22:25;;;;;;;9.95;4.32;;;;;;;;;;5075093;28;20047;-82
2023/08/09 04:24:51;;;;;;;10.23;5.47;;;;;;;;;;5075465;28;20438;-82
2023/08/09 04:27:16;;;;;;;11.57;5.45;;;;;;;;;;5079839;28;20389;-83
2023/08/09 04:29:42;;;;;;;11.25;5.28;;;;;;;;;;5076609;28;20034;-82
2023/08/09 04:32:10;;;;;;;13.85;5.82;;;;;;;;;;5077063;28;20027;-82
2023/08/09 04:34:36;;;;;;;13.52;6.70;;;;;;;;;;5076763;28;20391;-83
2023/08/09 04:37:01;;;;;;;15.48;6.57;;;;;;;;;;5094042;28;20055;-82
2023/08/09 04:39:29;;;;;;;17.92;7.65;;;;;;;;;;5075250;28;20463;-82
2023/08/09 04:41:57;;;;;;;15.73;6.82;;;;;;;;;;5074330;28;20532;-82
2023/08/09 04:44:22;;;;;;;30.90;8.18;;;;;;;;;;5075063;28;20028;-83
2023/08/09 04:46:48;;;;;;;19.27;8.55;;;;;;;;;;5080357;28;20012;-82
2023/08/09 04:49:13;;;;;;;17.52;8.32;;;;;;;;;;5094294;28;20069;-82
2023/08/09 04:51:41;;;;;;;24.98;8.45;;;;;;;;;;5089560;28;20019;-83
2023/08/09 04:54:06;;;;;;;21.38;9.05;;;;;;;;;;5061686;28;20470;-81
2023/08/09 04:56:31;;;;;;;23.30;9.32;;;;;;;;;;5073572;28;20024;-82
2023/08/09 04:58:57;;;;;;;22.58;9.38;;;;;;;;;;5081415;28;20069;-82
2023/08/09 05:01:22;;;;;;;22.85;9.07;;;;;;;;;;5073123;28;20449;-83
2023/08/09 05:03:47;;;;;;;23.20;8.77;;;;;;;;;;5073710;28;20016;-82
2023/08/09 05:06:13;;;;;;;25.35;9.60;;;;;;;;;;5082152;28;20020;-82
2023/08/09 05:08:38;;;;;;;21.65;8.98;;;;;;;;;;5092943;28;20020;-82
2023/08/09 05:11:06;;;;;;;27.15;11.07;;;;;;;;;;5089838;28;20104;-82
2023/08/09 05:13:31;;;;;;;24.50;9.77;;;;;;;;;;5076962;28;20031;-82
2023/08/09 05:15:56;;;;;;;29.10;11.27;;;;;;;;;;5092123;28;20113;-82
2023/08/09 05:18:24;;;;;;;23.30;9.40;;;;;;;;;;5094163;28;20015;-83
2023/08/09 05:20:49;;;;;;;29.95;10.45;;;;;;;;;;5074429;28;20502;-83
2023/08/09 05:23:15;;;;;;;27.35;10.18;;;;;;;;;;5073910;28;20024;-82
2023/08/09 05:25:40;;;;;;;29.50;10.63;;;;;;;;;;5075203;28;20016;-83
2023/08/09 05:28:06;;;;;;;28.52;10.75;;;;;;;;;;5093709;28;20102;-82
2023/08/09 05:30:31;;;;;;;27.50;11.00;;;;;;;;;;5095233;28;20510;-83
2023/08/09 05:32:58;;;;;;;34.33;12.25;;;;;;;;;;5093837;28;20104;-83
2023/08/09 05:35:26;;;;;;;28.17;11.40;;;;;;;;;;5085667;28;20028;-82
2023/08/09 05:37:51;;;;;;;25.73;9.60;;;;;;;;;;5091978;28;20019;-83
2023/08/09 05:40:17;;;;;;;21.38;8.27;;;;;;;;;;5084438;28;20024;-82
2023/08/09 05:42:43;;;;;;;26.15;9.85;;;;;;;;;;5084317;28;20447;-82
2023/08/09 05:45:09;;;;;;;28.25;10.75;;;;;;;;;;5081154;28;20054;-82
2023/08/09 05:47:34;;;;;;;24.25;10.02;;;;;;;;;;5075066;28;20027;-82
2023/08/09 05:49:59;;;;;;;24.17;9.65;;;;;;;;;;5088700;28;20422;-83
2023/08/09 05:52:25;;;;;;;25.02;9.43;;;;;;;;;;5076188;28;20037;-82
2023/08/09 05:54:50;;;;;;;30.50;11.43;;;;;;;;;;5091940;28;20443;-82
2023/08/09 05:57:15;;;;;;;28.30;10.50;;;;;;;;;;5084775;28;20084;-82
2023/08/09 05:59:41;;;;;;;34.70;12.00;;;;;;;;;;5073650;28;20455;-82
2023/08/09 06:02:09;;;;;;;32.78;12.00;;;;;;;;;;5071804;28;20502;-82
2023/08/09 06:04:34;;;;;;;33.40;12.60;;;;;;;;;;5072974;28;20028;-82
2023/08/09 06:07:03;;;;;;;31.33;12.38;;;;;;;;;;5075963;28;20030;-82
2023/08/09 06:09:28;;;;;;;33.40;12.80;;;;;;;;;;5077685;28;20073;-82
2023/08/09 06:11:54;;;;;;;35.63;12.98;;;;;;;;;;5076653;28;20028;-84
2023/08/09 06:14:19;;;;;;;30.90;12.57;;;;;;;;;;5099227;28;20019;-83
2023/08/09 06:16:47;;;;;;;34.90;13.15;;;;;;;;;;5087515;28;20051;-83
2023/08/09 06:19:15;;;;;;;32.60;13.27;;;;;;;;;;5090802;28;20175;-83
2023/08/09 06:21:41;;;;;;;36.17;13.25;;;;;;;;;;5087276;28;20523;-83
2023/08/09 06:24:06;;;;;;;37.72;14.13;;;;;;;;;;5080295;28;20158;-84
2023/08/09 06:26:32;;;;;;;38.75;14.32;;;;;;;;;;5091395;28;20020;-83
2023/08/09 06:28:57;;;;;;;38.30;14.20;;;;;;;;;;5075906;28;20032;-83
2023/08/09 06:31:23;;;;;;;34.60;13.95;;;;;;;;;;5093372;28;20027;-84
2023/08/09 06:33:49;;;;;;;38.42;15.57;;;;;;;;;;5087861;28;20038;-84
2023/08/09 06:36:14;;;;;;;37.85;14.35;;;;;;;;;;5088221;28;20113;-84
2023/08/09 06:38:39;;;;;;;39.28;14.13;;;;;;;;;;5096698;28;20069;-83
2023/08/09 06:41:07;;;;;;;36.35;14.75;;;;;;;;;;5091312;28;20474;-83
2023/08/09 06:43:32;;;;;;;41.80;14.77;;;;;;;;;;5074120;28;20036;-83
2023/08/09 06:46:01;;;;;;;37.58;15.25;;;;;;;;;;5075268;28;20020;-83
2023/08/09 06:48:29;;;;;;;39.60;13.23;;;;;;;;;;5074164;28;20538;-84
2023/08/09 06:50:55;;;;;;;38.15;13.80;;;;;;;;;;5077859;28;20056;-84
2023/08/09 06:53:21;;;;;;;34.22;13.18;;;;;;;;;;5077631;28;20024;-83
2023/08/09 06:55:46;;;;;;;35.72;12.93;;;;;;;;;;5076015;28;20027;-83
2023/08/09 06:58:11;;;;;;;32.40;11.95;;;;;;;;;;5107339;28;20461;-84
2023/08/09 07:00:37;;;;;;;33.70;13.32;;;;;;;;;;5076400;28;20103;-84
2023/08/09 07:03:02;;;;;;;38.53;14.93;;;;;;;;;;5076151;28;20035;-84
2023/08/09 07:05:28;;;;;;;40.33;14.65;;;;;;;;;;5077149;28;20027;-83
2023/08/09 07:07:54;;;;;;;38.45;12.73;;;;;;;;;;5076480;28;20436;-84
2023/08/09 07:10:20;;;;;;;33.28;12.40;;;;;;;;;;5095177;28;20028;-84
2023/08/09 07:12:46;;;;;;;35.10;13.30;;;;;;;;;;5075524;28;20119;-83
2023/08/09 07:15:11;;;;;;;34.80;13.90;;;;;;;;;;5076072;28;20611;-83
2023/08/09 07:17:37;;;;;;;37.92;14.77;;;;;;;;;;5074808;28;20044;-84
2023/08/09 07:20:11;;;;;;;42.92;15.68;;;;;;;;;;5075842;28;20059;-84
2023/08/09 07:22:37;;;;;;;39.10;14.80;;;;;;;;;;5076048;28;20028;-84
2023/08/09 07:25:03;;;;;;;36.60;16.38;;;;;;;;;;5074674;28;20016;-84
2023/08/09 07:27:28;;;;;;;38.58;15.43;;;;;;;;;;5075167;28;20024;-84
2023/08/09 07:29:54;;;;;;;28.90;12.27;;;;;;;;;;5074869;28;20020;-84
2023/08/09 07:32:19;;;;;;;33.38;12.93;;;;;;;;;;5073611;28;20027;-84
2023/08/09 07:34:45;;;;;;;35.78;14.13;;;;;;;;;;5075770;28;20023;-83
2023/08/09 07:37:10;;;;;;;32.65;14.15;;;;;;;;;;5075615;28;20023;-83
2023/08/09 07:39:35;;;;;;;32.17;14.60;;;;;;;;;;5075279;28;20015;-84
2023/08/09 07:42:01;;;;;;;34.50;14.93;;;;;;;;;;5074744;28;20020;-83
2023/08/09 07:44:26;;;;;;;32.95;14.93;;;;;;;;;;5074926;28;20016;-83
2023/08/09 07:46:52;;;;;;;35.00;15.85;;;;;;;;;;5075352;28;20020;-83
2023/08/09 07:49:17;;;;;;;33.75;14.40;;;;;;;;;;5072519;28;20459;-83
2023/08/09 07:51:42;;;;;;;30.63;13.38;;;;;;;;;;5071648;28;20031;-83
2023/08/09 07:54:07;;;;;;;31.83;14.10;;;;;;;;;;5074232;28;20047;-83
2023/08/09 07:56:34;;;;;;;33.22;14.15;;;;;;;;;;5093016;28;20012;-83
2023/08/09 07:58:59;;;;;;;32.42;13.90;;;;;;;;;;5074654;28;20047;-83
2023/08/09 08:01:24;;;;;;;27.92;13.10;;;;;;;;;;5074434;28;20725;-83
2023/08/09 08:03:50;;;;;;;22.67;10.77;;;;;;;;;;5073839;28;20607;-83
2023/08/09 08:06:17;;;;;;;29.55;11.40;;;;;;;;;;5074029;28;20026;-83
2023/08/09 08:08:43;;;;;;;31.52;11.48;;;;;;;;;;5074076;28;20028;-83
2023/08/09 08:11:08;;;;;;;18.70;8.55;;;;;;;;;;5080384;28;20024;-84
2023/08/09 08:13:33;;;;;;;24.98;9.75;;;;;;;;;;5073618;28;20074;-83
2023/08/09 08:16:04;;;;;;;23.83;10.98;;;;;;;;;;5088597;28;20011;-83
2023/08/09 08:18:31;;;;;;;22.23;9.68;;;;;;;;;;5072462;28;20372;-83
2023/08/09 08:21:00;;;;;;;22.25;10.65;;;;;;;;;;5097393;28;20023;-83
2023/08/09 08:23:25;;;;;;;20.88;10.55;;;;;;;;;;5075981;28;20487;-84
2023/08/09 08:25:50;;;;;;;23.92;11.30;;;;;;;;;;5084727;28;20043;-83
2023/08/09 08:28:16;;;;;;;21.63;10.13;;;;;;;;;;5085881;28;20076;-83
2023/08/09 08:30:41;;;;;;;26.05;10.95;;;;;;;;;;5078622;28;20052;-83
2023/08/09 08:33:09;;;;;;;24.38;10.40;;;;;;;;;;5081069;28;20470;-82
2023/08/09 08:35:36;;;;;;;23.90;9.40;;;;;;;;;;5080639;28;20035;-83
2023/08/09 08:38:05;;;;;;;20.05;9.48;;;;;;;;;;5094059;28;20015;-83
2023/08/09 08:40:33;;;;;;;22.52;9.10;;;;;;;;;;5099970;28;20099;-82
2023/08/09 08:42:59;;;;;;;21.15;9.38;;;;;;;;;;5088977;28;20019;-83
2023/08/09 08:45:24;;;;;;;17.60;8.82;;;;;;;;;;5097170;28;20041;-83
2023/08/09 08:47:50;;;;;;;17.38;9.35;;;;;;;;;;5087973;28;20504;-82
2023/08/09 08:50:19;;;;;;;15.27;7.22;;;;;;;;;;5086934;28;20042;-82
2023/08/09 08:52:48;;;;;;;14.90;7.47;;;;;;;;;;5076323;28;20373;-82
2023/08/09 08:55:13;;;;;;;9.25;5.35;;;;;;;;;;5080680;28;20049;-82
2023/08/09 08:57:39;;;;;;;10.50;4.68;;;;;;;;;;5083176;28;20030;-83
2023/08/09 09:00:08;;;;;;;12.90;6.28;;;;;;;;;;5072313;28;20046;-82
2023/08/09 09:02:34;;;;;;;11.43;5.90;;;;;;;;;;5072182;28;20070;-82
2023/08/09 09:04:59;;;;;;;15.25;7.00;;;;;;;;;;5068232;28;20393;-82
2023/08/09 09:07:25;;;;;;;13.73;7.20;;;;;;;;;;5065659;28;20059;-82
2023/08/09 09:10:00;;;;;;;9.25;5.82;;;;;;;;;;5073686;28;20020;-82
2023/08/09 09:12:25;;;;;;;7.22;4.07;;;;;;;;;;5063791;28;20079;-83
2023/08/09 09:14:56;;;;;;;6.00;4.03;;;;;;;;;;5073563;28;20016;-82
2023/08/09 09:17:21;;;;;;;9.48;4.82;;;;;;;;;;5091957;28;20039;-82
2023/08/09 09:19:47;;;;;;;9.05;4.80;;;;;;;;;;5092165;28;20061;-82
2023/08/09 09:22:28;;;;;;;8.75;4.82;;;;;;;;;;5073095;28;20488;-82
2023/08/09 09:24:58;;;;;;;9.90;5.20;;;;;;;;;;5091867;28;20111;-82
2023/08/09 09:27:31;;;;;;;9.23;4.53;;;;;;;;;;5073922;28;20377;-83
2023/08/09 09:30:09;;;;;;;6.80;3.72;;;;;;;;;;5071896;28;20102;-82
2023/08/09 09:32:35;;;;;;;9.40;4.57;;;;;;;;;;5073404;28;21376;-81
2023/08/09 09:35:00;;;;;;;6.78;4.32;;;;;;;;;;5073599;28;20379;-82
2023/08/09 09:37:27;;;;;;;8.32;4.68;;;;;;;;;;5092375;28;20019;-82
2023/08/09 09:39:53;;;;;;;9.50;4.32;;;;;;;;;;5073504;28;20024;-81
2023/08/09 09:42:37;;;;;;;8.05;4.38;;;;;;;;;;5075013;28;20111;-82
2023/08/09 09:45:04;;;;;;;9.65;4.85;;;;;;;;;;5078203;28;20030;-82
2023/08/09 09:47:31;;;;;;;8.48;5.03;;;;;;;;;;5078787;28;20107;-82
2023/08/09 09:49:57;;;;;;;7.72;3.97;;;;;;;;;;5079563;28;20031;-81
2023/08/09 09:52:22;;;;;;;7.38;3.83;;;;;;;;;;5078216;28;20039;-82
2023/08/09 09:54:47;;;;;;;4.55;3.30;;;;;;;;;;5076675;28;20413;-82
2023/08/09 09:57:13;;;;;;;6.32;4.03;;;;;;;;;;5078064;28;20026;-82
2023/08/09 09:59:39;;;;;;;9.35;5.35;;;;;;;;;;5077364;28;20085;-82
2023/08/09 10:02:05;;;;;;;8.35;4.80;;;;;;;;;;5076352;28;20020;-82
2023/08/09 10:04:31;;;;;;;5.93;4.38;;;;;;;;;;5076626;28;20027;-81
2023/08/09 10:06:56;;;;;;;7.18;4.00;;;;;;;;;;5077446;28;20090;-82
2023/08/09 10:09:23;;;;;;;7.65;3.30;;;;;;;;;;5077407;28;20418;-81
2023/08/09 10:11:50;;;;;;;7.07;3.53;;;;;;;;;;5076141;28;20066;-82
2023/08/09 10:14:18;;;;;;;6.65;4.35;;;;;;;;;;5076695;28;20012;-81
2023/08/09 10:16:44;;;;;;;14.50;3.92;;;;;;;;;;5076159;28;20024;-83
2023/08/09 10:19:12;;;;;;;6.75;4.13;;;;;;;;;;5090953;28;20030;-82
2023/08/09 10:21:39;;;;;;;7.45;4.20;;;;;;;;;;5091470;28;20016;-82
2023/08/09 10:24:06;;;;;;;6.20;4.40;;;;;;;;;;5096876;28;20386;-82
2023/08/09 10:26:32;;;;;;;8.82;4.53;;;;;;;;;;5081097;28;20016;-82
2023/08/09 10:29:01;;;;;;;6.47;4.72;;;;;;;;;;5076417;28;20070;-82
2023/08/09 10:31:46;;;;;;;7.10;4.07;;;;;;;;;;5103961;28;20020;-82
2023/08/09 10:34:15;;;;;;;5.18;3.75;;;;;;;;;;5115252;28;20055;-82
2023/08/09 10:36:41;;;;;;;6.43;3.85;;;;;;;;;;5082082;28;20043;-86
2023/08/09 10:39:11;;;;;;;6.22;4.03;;;;;;;;;;5097657;28;20114;-86
2023/08/09 10:41:37;;;;;;;6.07;3.90;;;;;;;;;;5086124;28;20420;-85
2023/08/09 10:44:03;;;;;;;6.97;3.75;;;;;;;;;;5069508;28;20056;-85
2023/08/09 10:46:31;;;;;;;5.65;3.55;;;;;;;;;;5091023;28;20544;-85
2023/08/09 10:49:00;;;;;;;9.30;4.38;;;;;;;;;;5095705;28;20051;-85
2023/08/09 10:51:26;;;;;;;5.50;3.65;;;;;;;;;;5077793;28;20099;-86
2023/08/09 10:54:00;;;;;;;8.30;4.30;;;;;;;;;;5082430;28;20425;-86
2023/08/09 10:56:32;;;;;;;8.93;4.80;;;;;;;;;;5115933;28;20043;-86
2023/08/09 10:59:13;;;;;;;7.07;4.30;;;;;;;;;;5093685;28;20020;-86
2023/08/09 11:01:39;;;;;;;6.38;3.53;;;;;;;;;;5090090;28;20046;-86
2023/08/09 11:04:08;;;;;;;7.13;4.03;;;;;;;;;;5076913;28;20035;-86
2023/08/09 11:06:38;;;;;;;6.55;4.15;;;;;;;;;;5077197;28;20389;-86
2023/08/09 11:09:08;;;;;;;4.38;2.63;;;;;;;;;;5091456;28;20036;-85
2023/08/09 11:11:34;;;;;;;7.97;3.40;;;;;;;;;;5078275;28;20483;-86
2023/08/09 11:13:59;;;;;;;6.90;2.75;;;;;;;;;;5079674;28;20020;-85
2023/08/09 11:16:26;;;;;;;6.50;4.68;;;;;;;;;;5089509;28;20019;-86
2023/08/09 11:19:21;;;;;;;8.75;3.70;;;;;;;;;;5092462;28;20011;-86
2023/08/09 11:21:51;;;;;;;4.80;3.03;;;;;;;;;;5083227;28;20048;-86
2023/08/09 11:24:17;;;;;;;4.90;3.25;;;;;;;;;;5076572;28;20016;-85
2023/08/09 11:26:45;;;;;;;4.13;2.55;;;;;;;;;;5074852;28;20023;-84
2023/08/09 11:29:11;;;;;;;4.45;2.50;;;;;;;;;;5091190;28;20355;-85
2023/08/09 11:31:40;;;;;;;3.80;2.88;;;;;;;;;;5076851;28;20207;-86
2023/08/09 11:34:06;;;;;;;3.92;2.90;;;;;;;;;;5076228;28;20032;-86
2023/08/09 11:36:32;;;;;;;5.28;2.20;;;;;;;;;;5092901;28;20024;-85
2023/08/09 11:38:58;;;;;;;5.82;2.90;;;;;;;;;;5084473;28;20393;-86
2023/08/09 11:41:25;;;;;;;4.65;2.08;;;;;;;;;;5089250;28;20030;-86
2023/08/09 11:43:50;;;;;;;4.13;2.20;;;;;;;;;;5096396;28;20031;-86
2023/08/09 11:46:18;;;;;;;5.15;2.47;;;;;;;;;;5093440;28;20027;-85
2023/08/09 11:48:44;;;;;;;4.78;2.28;;;;;;;;;;5093083;28;20021;-86
2023/08/09 11:51:09;;;;;;;5.35;2.17;;;;;;;;;;5085571;28;20043;-85
2023/08/09 11:53:36;;;;;;;2.10;1.55;;;;;;;;;;5087507;28;20040;-86
2023/08/09 11:56:02;;;;;;;6.63;3.25;;;;;;;;;;5107574;28;20024;-85
2023/08/09 11:58:27;;;;;;;3.20;2.40;;;;;;;;;;5082858;28;20054;-86
2023/08/09 12:00:53;;;;;;;7.15;2.63;;;;;;;;;;5075918;28;20024;-85
2023/08/09 12:03:24;;;;;;;4.78;3.17;;;;;;;;;;5076333;28;20024;-85
2023/08/09 12:05:52;;;;;;;5.82;2.50;;;;;;;;;;5075988;28;20382;-86
2023/08/09 12:08:30;;;;;;;4.28;3.15;;;;;;;;;;5074980;28;20210;-87
2023/08/09 12:10:56;;;;;;;6.00;2.92;;;;;;;;;;5075575;28;20030;-87
2023/08/09 12:13:22;;;;;;;14.27;2.92;;;;;;;;;;5092622;28;20111;-87
2023/08/09 12:15:47;;;;;;;5.25;3.80;;;;;;;;;;5075891;28;20031;-87
2023/08/09 12:18:12;;;;;;;5.20;3.50;;;;;;;;;;5073835;28;20493;-87
2023/08/09 12:20:38;;;;;;;10.38;4.18;;;;;;;;;;5075780;28;20040;-87
2023/08/09 12:23:03;;;;;;;5.45;4.13;;;;;;;;;;5093873;28;20024;-87
2023/08/09 12:25:28;;;;;;;4.90;3.85;;;;;;;;;;5093760;28;20018;-86
2023/08/09 12:27:54;;;;;;;7.45;3.70;;;;;;;;;;5077075;28;20028;-87
2023/08/09 12:30:19;;;;;;;5.85;3.95;;;;;;;;;;5078499;28;20023;-87
2023/08/09 12:32:51;;;;;;;7.25;3.85;;;;;;;;;;5076587;28;20024;-87
2023/08/09 12:35:17;;;;;;;4.78;4.05;;;;;;;;;;5078587;28;20420;-87
2023/08/09 12:37:45;;;;;;;4.10;3.20;;;;;;;;;;5076327;28;20027;-87
2023/08/09 12:40:11;;;;;;;4.55;3.20;;;;;;;;;;5075338;28;20024;-87
2023/08/09 12:42:36;;;;;;;6.65;3.47;;;;;;;;;;5075317;28;20088;-87
2023/08/09 12:45:04;;;;;;;5.70;3.88;;;;;;;;;;5075256;28;20123;-87
2023/08/09 12:47:29;;;;;;;5.07;3.30;;;;;;;;;;5075072;28;20574;-87
2023/08/09 12:49:55;;;;;;;6.75;3.88;;;;;;;;;;5075724;28;20043;-87
2023/08/09 12:52:22;;;;;;;3.60;2.88;;;;;;;;;;5090865;28;20016;-87
2023/08/09 12:54:51;;;;;;;6.47;3.22;;;;;;;;;;5074317;28;20020;-87
2023/08/09 12:57:16;;;;;;;5.07;2.88;;;;;;;;;;5075256;28;20023;-87
2023/08/09 12:59:42;;;;;;;3.95;2.47;;;;;;;;;;5074508;28;20032;-88
2023/08/09 13:02:08;;;;;;;5.78;2.00;;;;;;;;;;5071564;28;20394;-88
2023/08/09 13:04:34;;;;;;;4.47;1.67;;;;;;;;;;5074420;28;20126;-88
2023/08/09 13:06:59;;;;;;;3.50;1.63;;;;;;;;;;5074959;28;20032;-88
2023/08/09 13:09:24;;;;;;;2.53;1.70;;;;;;;;;;5075095;28;20016;-87
2023/08/09 13:12:01;;;;;;;2.47;1.60;;;;;;;;;;5091010;28;20413;-86
2023/08/09 13:14:27;;;;;;;3.92;1.80;;;;;;;;;;5088124;28;20020;-87
2023/08/09 13:16:52;;;;;;;2.53;1.38;;;;;;;;;;5080868;28;20489;-88
2023/08/09 13:19:17;;;;;;;2.50;1.20;;;;;;;;;;5081260;28;20016;-88
2023/08/09 13:21:43;;;;;;;4.05;1.20;;;;;;;;;;5081615;28;20162;-87
2023/08/09 13:24:10;;;;;;;1.70;1.08;;;;;;;;;;5080828;28;20471;-88
2023/08/09 13:26:36;;;;;;;1.83;1.15;;;;;;;;;;5080955;28;20536;-87
2023/08/09 13:29:01;;;;;;;1.60;1.13;;;;;;;;;;5081394;28;20024;-88
2023/08/09 13:31:27;;;;;;;3.97;1.33;;;;;;;;;;5081121;28;20016;-88
2023/08/09 13:33:52;;;;;;;1.58;1.00;;;;;;;;;;5067220;28;20053;-87
2023/08/09 13:36:18;;;;;;;6.00;1.05;;;;;;;;;;5081007;28;20053;-87
2023/08/09 13:38:43;;;;;;;1.70;1.17;;;;;;;;;;5081260;28;20028;-87
2023/08/09 13:41:09;;;;;;;2.00;1.00;;;;;;;;;;5081539;28;20030;-87
2023/08/09 13:43:36;;;;;;;3.92;1.40;;;;;;;;;;5080636;28;20020;-88
2023/08/09 13:46:02;;;;;;;3.35;1.25;;;;;;;;;;5081196;28;20440;-87
2023/08/09 13:48:27;;;;;;;1.77;1.10;;;;;;;;;;5081419;28;20028;-87
2023/08/09 13:50:53;;;;;;;2.88;1.25;;;;;;;;;;5081982;28;20538;-88
2023/08/09 13:53:18;;;;;;;9.05;1.52;;;;;;;;;;5082078;28;20355;-88
2023/08/09 13:55:45;;;;;;;5.85;1.20;;;;;;;;;;5112992;28;20012;-87
2023/08/09 13:58:11;;;;;;;4.38;1.20;;;;;;;;;;5100861;28;20020;-88
2023/08/09 14:00:37;;;;;;;6.00;1.50;;;;;;;;;;5095991;28;20020;-87
2023/08/09 14:03:02;;;;;;;3.83;1.25;;;;;;;;;;5081684;28;20031;-87
2023/08/09 14:05:28;;;;;;;4.35;1.10;;;;;;;;;;5099423;28;20107;-87
2023/08/09 14:07:54;;;;;;;1.40;0.77;;;;;;;;;;5070687;28;20020;-88
2023/08/09 14:10:22;;;;;;;3.33;1.05;;;;;;;;;;5084130;28;20024;-88
2023/08/09 14:12:49;;;;;;;1.90;1.10;;;;;;;;;;5079804;28;20020;-88
2023/08/09 14:15:15;;;;;;;4.18;1.10;;;;;;;;;;5080422;28;20069;-88
2023/08/09 14:17:43;;;;;;;3.60;1.05;;;;;;;;;;5079234;28;20016;-86
2023/08/09 14:20:16;;;;;;;2.10;0.90;;;;;;;;;;5080972;28;20076;-86
2023/08/09 14:22:41;;;;;;;1.35;0.73;;;;;;;;;;5081421;28;20471;-86
2023/08/09 14:25:08;;;;;;;1.55;1.00;;;;;;;;;;5080571;28;20030;-86
2023/08/09 14:27:33;;;;;;;6.70;1.42;;;;;;;;;;5076854;28;20531;-86
2023/08/09 14:29:58;;;;;;;4.63;1.50;;;;;;;;;;5077875;28;20160;-87
2023/08/09 14:32:24;;;;;;;1.67;0.80;;;;;;;;;;5078273;28;20024;-87